createdAt,value
2023-03-06T00:01:19.301Z,97271.59
2023-03-06T00:03:47.333Z,97269.97
2023-03-06T00:06:15.328Z,97266.50
2023-03-06T00:08:43.291Z,97268.34
2023-03-06T00:11:14.840Z,97261.19
2023-03-06T00:13:45.468Z,97262.22
2023-03-06T00:16:13.622Z,97258.75
2023-03-06T00:18:44.100Z,97260.38
2023-03-06T00:21:12.450Z,97250.78
2023-03-06T00:23:41.351Z,97251.59
2023-03-06T00:26:09.669Z,97252.19
2023-03-06T00:28:37.754Z,97251.38
2023-03-06T00:31:07.375Z,97245.47
2023-03-06T00:33:35.271Z,97254.63
2023-03-06T00:36:05.685Z,97242.38
2023-03-06T00:38:35.676Z,97237.50
2023-03-06T00:41:08.727Z,97241.19
2023-03-06T00:43:37.193Z,97232.63
2023-03-06T00:46:07.616Z,97223.41
2023-03-06T00:48:36.235Z,97227.31
2023-03-06T00:51:05.110Z,97220.16
2023-03-06T00:53:33.575Z,97216.91
2023-03-06T00:56:02.265Z,97210.13
2023-03-06T00:58:30.663Z,97212.84
2023-03-06T01:00:58.682Z,97214.25
2023-03-06T01:03:28.042Z,97216.09
2023-03-06T01:05:56.334Z,97217.13
2023-03-06T01:08:24.535Z,97210.78
2023-03-06T01:10:52.515Z,97200.38
2023-03-06T01:13:21.000Z,97205.03
2023-03-06T01:15:49.099Z,97190.56
2023-03-06T01:18:17.147Z,97191.38
2023-03-06T01:20:46.716Z,97202.00
2023-03-06T01:23:14.760Z,97191.59
2023-03-06T01:25:42.692Z,97190.56
2023-03-06T01:28:10.785Z,97180.97
2023-03-06T01:30:38.787Z,97185.69
2023-03-06T01:33:06.864Z,97187.69
2023-03-06T01:35:35.189Z,97185.25
2023-03-06T01:38:05.033Z,97186.28
2023-03-06T01:40:33.623Z,97185.25
2023-03-06T01:43:10.518Z,97184.22
2023-03-06T01:46:30.553Z,97176.03
2023-03-06T01:49:02.096Z,97177.88
2023-03-06T01:51:34.440Z,97176.25
2023-03-06T01:54:08.655Z,97167.91
2023-03-06T01:56:37.743Z,97162.16
2023-03-06T01:59:06.206Z,97158.91
2023-03-06T02:01:34.899Z,97152.56
2023-03-06T02:04:03.146Z,97151.97
2023-03-06T02:06:31.265Z,97151.16
2023-03-06T02:08:59.508Z,97146.88
2023-03-06T02:11:29.391Z,97142.38
2023-03-06T02:13:57.490Z,97140.31
2023-03-06T02:16:28.835Z,97133.97
2023-03-06T02:18:57.920Z,97127.84
2023-03-06T02:21:29.699Z,97128.88
2023-03-06T02:24:19.508Z,97127.25
2023-03-06T02:26:50.000Z,97122.19
2023-03-06T02:29:23.251Z,97116.63
2023-03-06T02:31:51.653Z,97107.50
2023-03-06T02:34:48.706Z,97119.97
2023-03-06T02:37:17.049Z,97118.13
2023-03-06T02:39:49.680Z,97104.84
2023-03-06T02:42:24.781Z,97100.56
2023-03-06T02:44:55.087Z,97096.94
2023-03-06T02:47:23.406Z,97098.34
2023-03-06T02:49:51.391Z,97095.09
2023-03-06T02:52:19.858Z,97097.16
2023-03-06T02:54:48.492Z,97088.38
2023-03-06T02:57:17.092Z,97085.97
2023-03-06T02:59:46.923Z,97086.19
2023-03-06T03:02:15.266Z,97079.69
2023-03-06T03:04:43.774Z,97082.50
2023-03-06T03:07:12.054Z,97085.97
2023-03-06T03:09:40.507Z,97085.16
2023-03-06T03:12:09.488Z,97083.88
2023-03-06T03:14:37.561Z,97084.69
2023-03-06T03:17:07.253Z,97078.34
2023-03-06T03:19:35.874Z,97070.16
2023-03-06T03:22:04.134Z,97078.34
2023-03-06T03:24:32.264Z,97076.50
2023-03-06T03:27:00.542Z,97077.53
2023-03-06T03:29:28.574Z,97084.47
2023-03-06T03:31:56.639Z,97088.97
2023-03-06T03:34:26.214Z,97079.97
2023-03-06T03:36:54.253Z,97076.50
2023-03-06T03:39:22.291Z,97078.56
2023-03-06T03:41:50.584Z,97067.97
2023-03-06T03:44:18.630Z,97070.03
2023-03-06T03:46:46.954Z,97059.19
2023-03-06T03:49:15.312Z,97064.72
2023-03-06T03:51:45.211Z,97069.00
2023-03-06T03:54:13.196Z,97055.94
2023-03-06T03:56:41.887Z,97065.53
2023-03-06T03:59:10.219Z,97062.88
2023-03-06T04:01:39.704Z,97062.06
2023-03-06T04:04:09.224Z,97060.22
2023-03-06T04:06:37.129Z,97061.03
2023-03-06T04:09:07.375Z,97054.09
2023-03-06T04:11:35.417Z,97046.56
2023-03-06T04:14:03.467Z,97048.56
2023-03-06T04:16:31.696Z,97037.94
2023-03-06T04:18:59.835Z,97047.75
2023-03-06T04:21:27.927Z,97043.47
2023-03-06T04:23:56.035Z,97035.50
2023-03-06T04:26:25.456Z,97039.56
2023-03-06T04:28:53.758Z,97039.19
2023-03-06T04:31:21.761Z,97032.03
2023-03-06T04:33:49.790Z,97034.47
2023-03-06T04:36:27.506Z,97032.03
2023-03-06T04:38:55.873Z,97032.84
2023-03-06T04:41:25.406Z,97033.06
2023-03-06T04:43:54.395Z,97034.91
2023-03-06T04:46:22.333Z,97030.63
2023-03-06T04:48:50.394Z,97029.81
2023-03-06T04:51:18.454Z,97025.56
2023-03-06T04:53:46.687Z,97026.34
2023-03-06T04:56:14.896Z,97021.28
2023-03-06T04:58:45.415Z,97023.94
2023-03-06T05:01:14.013Z,97023.13
2023-03-06T05:03:42.213Z,97023.34
2023-03-06T05:06:10.312Z,97027.84
2023-03-06T05:08:38.664Z,97019.06
2023-03-06T05:11:07.140Z,97020.09
2023-03-06T05:13:37.905Z,97014.78
2023-03-06T05:16:09.010Z,97015.00
2023-03-06T05:18:38.373Z,97022.16
2023-03-06T05:21:06.830Z,97018.09
2023-03-06T05:23:38.537Z,97007.72
2023-03-06T05:26:09.229Z,97013.25
2023-03-06T05:28:37.633Z,97013.84
2023-03-06T05:31:07.612Z,97015.44
2023-03-06T05:33:36.909Z,97011.63
2023-03-06T05:36:05.597Z,97009.56
2023-03-06T05:38:33.875Z,97007.94
2023-03-06T05:41:02.461Z,97007.13
2023-03-06T05:43:30.549Z,97007.13
2023-03-06T05:46:03.810Z,97004.47
2023-03-06T05:48:33.640Z,97007.94
2023-03-06T05:51:03.287Z,97008.75
2023-03-06T05:53:31.997Z,97004.03
2023-03-06T05:56:01.747Z,97005.88
2023-03-06T05:58:30.597Z,97008.31
2023-03-06T06:01:00.209Z,97005.66
2023-03-06T06:03:28.545Z,97007.50
2023-03-06T06:05:58.018Z,97004.03
2023-03-06T06:08:26.345Z,97007.72
2023-03-06T06:10:54.389Z,97007.72
2023-03-06T06:13:22.402Z,97009.56
2023-03-06T06:15:50.511Z,97012.78
2023-03-06T06:18:19.005Z,97004.84
2023-03-06T06:20:46.992Z,97016.03
2023-03-06T06:23:16.466Z,97008.88
2023-03-06T06:25:44.458Z,97011.75
2023-03-06T06:28:13.642Z,97007.03
2023-03-06T06:30:41.510Z,97008.66
2023-03-06T06:33:11.444Z,97010.28
2023-03-06T06:35:39.498Z,97012.50
2023-03-06T06:38:07.808Z,97013.31
2023-03-06T06:40:37.578Z,97003.50
2023-03-06T06:43:05.716Z,97013.09
2023-03-06T06:45:33.676Z,97003.28
2023-03-06T06:48:01.675Z,96999.59
2023-03-06T06:50:29.987Z,97007.34
2023-03-06T06:52:57.934Z,97000.19
2023-03-06T06:55:25.840Z,97010.34
2023-03-06T06:57:55.148Z,97011.16
2023-03-06T07:00:24.388Z,97009.69
2023-03-06T07:02:52.502Z,97013.94
2023-03-06T07:05:22.148Z,97010.03
2023-03-06T07:07:51.389Z,97017.56
2023-03-06T07:10:21.136Z,97011.56
2023-03-06T07:12:49.690Z,97016.00
2023-03-06T07:15:19.684Z,97017.63
2023-03-06T07:17:49.942Z,97008.16
2023-03-06T07:20:18.991Z,97016.94
2023-03-06T07:22:51.206Z,97015.69
2023-03-06T07:25:20.278Z,97015.00
2023-03-06T07:27:53.406Z,97017.06
2023-03-06T07:30:24.329Z,97025.63
2023-03-06T07:32:55.094Z,97021.13
2023-03-06T07:35:24.090Z,97030.72
2023-03-06T07:37:52.448Z,97023.09
2023-03-06T07:40:20.929Z,97030.03
2023-03-06T07:42:49.612Z,97022.44
2023-03-06T07:45:17.846Z,97028.78
2023-03-06T07:47:47.334Z,97039.78
2023-03-06T07:50:15.556Z,97033.19
2023-03-06T07:52:43.828Z,97039.31
2023-03-06T07:55:12.906Z,97037.00
2023-03-06T07:57:40.864Z,97039.78
2023-03-06T08:00:14.004Z,97047.31
2023-03-06T08:02:43.749Z,97042.69
2023-03-06T08:05:15.351Z,97048.59
2023-03-06T08:07:43.921Z,97050.34
2023-03-06T08:10:16.264Z,97044.72
2023-03-06T08:12:44.412Z,97050.59
2023-03-06T08:15:13.488Z,97049.00
2023-03-06T08:17:41.773Z,97047.63
2023-03-06T08:20:11.477Z,97048.56
2023-03-06T08:22:41.322Z,97042.34
2023-03-06T08:25:10.142Z,97040.09
2023-03-06T08:27:38.375Z,97048.91
2023-03-06T08:30:07.044Z,97049.84
2023-03-06T08:32:36.750Z,97052.38
2023-03-06T08:35:04.936Z,97054.69
2023-03-06T08:37:33.208Z,97046.47
2023-03-06T08:40:04.744Z,97050.63
2023-03-06T08:42:32.794Z,97051.09
2023-03-06T08:45:00.982Z,97050.97
2023-03-06T08:47:28.960Z,97045.03
2023-03-06T08:50:00.187Z,97044.75
2023-03-06T08:52:29.696Z,97057.81
2023-03-06T08:55:02.171Z,97054.09
2023-03-06T08:57:31.689Z,97058.72
2023-03-06T09:00:00.028Z,97058.34
2023-03-06T09:02:28.321Z,97055.53
2023-03-06T09:04:56.300Z,97057.88
2023-03-06T09:07:24.269Z,97061.47
2023-03-06T09:09:52.242Z,97063.81
2023-03-06T09:12:20.488Z,97060.72
2023-03-06T09:14:49.759Z,97063.38
2023-03-06T09:17:18.205Z,97066.75
2023-03-06T09:19:46.466Z,97058.66
2023-03-06T09:22:14.490Z,97060.84
2023-03-06T09:24:42.928Z,97055.50
2023-03-06T09:27:10.817Z,97064.06
2023-03-06T09:29:38.745Z,97063.84
2023-03-06T09:32:10.631Z,97067.09
2023-03-06T09:34:39.963Z,97064.91
2023-03-06T09:37:07.862Z,97062.22
2023-03-06T09:39:36.768Z,97060.25
2023-03-06T09:42:07.134Z,97055.63
2023-03-06T09:44:38.609Z,97063.28
2023-03-06T09:47:39.654Z,97065.06
2023-03-06T09:50:20.017Z,97058.59
2023-03-06T09:52:59.701Z,97060.34
2023-03-06T09:55:30.388Z,97063.69
2023-03-06T09:58:07.424Z,97060.69
2023-03-06T10:00:39.553Z,97061.16
2023-03-06T10:03:20.967Z,97064.38
2023-03-06T10:05:54.415Z,97065.06
2023-03-06T10:08:28.406Z,97066.47
2023-03-06T10:11:02.054Z,97064.50
2023-03-06T10:13:38.407Z,97067.63
2023-03-06T10:16:17.143Z,97067.75
2023-03-06T10:18:45.378Z,97071.94
2023-03-06T10:21:34.620Z,97070.19
2023-03-06T10:24:10.827Z,97071.22
2023-03-06T10:26:44.551Z,97074.94
2023-03-06T10:29:38.510Z,97069.13
2023-03-06T10:32:21.682Z,97076.66
2023-03-06T10:34:51.056Z,97066.13
2023-03-06T10:37:22.854Z,97069.59
2023-03-06T10:39:56.257Z,97067.91
2023-03-06T10:42:25.379Z,97066.88
2023-03-06T10:45:09.548Z,97071.13
2023-03-06T10:47:38.607Z,97067.41
2023-03-06T10:50:19.787Z,97059.19
2023-03-06T10:53:00.315Z,97070.75
2023-03-06T10:55:31.114Z,97065.19
2023-03-06T10:57:59.428Z,97072.63
2023-03-06T11:00:33.787Z,97072.47
2023-03-06T11:03:21.751Z,97074.00
2023-03-06T11:06:02.026Z,97070.88
2023-03-06T11:08:31.953Z,97067.25
2023-03-06T11:11:02.352Z,97069.22
2023-03-06T11:13:32.784Z,97065.25
2023-03-06T11:16:07.894Z,97055.25
2023-03-06T11:18:39.265Z,97046.88
2023-03-06T11:21:25.587Z,97050.13
2023-03-06T11:23:57.047Z,97048.25
2023-03-06T11:26:35.718Z,97045.53
2023-03-06T11:29:40.592Z,97043.50
2023-03-06T11:32:16.398Z,97053.63
2023-03-06T11:34:50.935Z,97053.63
2023-03-06T11:37:26.550Z,97040.03
2023-03-06T11:40:04.743Z,97044.16
2023-03-06T11:42:39.318Z,97041.25
2023-03-06T11:45:23.595Z,97032.59
2023-03-06T11:47:59.054Z,97030.66
2023-03-06T11:50:32.673Z,97030.50
2023-03-06T11:53:03.100Z,97024.34
2023-03-06T11:55:41.652Z,97015.59
2023-03-06T11:58:36.327Z,97014.09
2023-03-06T12:01:10.342Z,97014.91
2023-03-06T12:03:57.815Z,97009.31
2023-03-06T12:06:38.473Z,96998.66
2023-03-06T12:09:29.062Z,96998.63
2023-03-06T12:15:06.885Z,97001.72
2023-03-06T12:17:54.236Z,96991.41
2023-03-06T12:20:35.665Z,96987.84
2023-03-06T12:23:15.688Z,96988.19
2023-03-06T12:25:45.872Z,96994.09
2023-03-06T12:29:02.415Z,96986.88
2023-03-06T12:31:43.831Z,96991.72
2023-03-06T12:34:47.485Z,96978.09
2023-03-06T12:37:28.169Z,96988.53
2023-03-06T12:40:18.092Z,96989.09
2023-03-06T12:43:07.060Z,96984.75
2023-03-06T12:45:37.515Z,96984.94
2023-03-06T12:48:16.274Z,96988.44
2023-03-06T12:50:45.569Z,96981.63
2023-03-06T12:53:23.101Z,96983.56
2023-03-06T12:55:52.644Z,96984.94
2023-03-06T12:58:52.349Z,96984.47
2023-03-06T13:01:44.443Z,96979.16
2023-03-06T13:04:51.001Z,96980.47
2023-03-06T13:07:34.332Z,96974.31
2023-03-06T13:10:12.037Z,96976.25
2023-03-06T13:13:07.287Z,96974.69
2023-03-06T13:15:45.876Z,96973.31
2023-03-06T13:18:51.685Z,96971.53
2023-03-06T13:21:59.444Z,96970.16
2023-03-06T13:24:28.889Z,96976.00
2023-03-06T13:27:00.146Z,96968.94
2023-03-06T13:30:06.548Z,96965.34
2023-03-06T13:32:37.959Z,96968.31
2023-03-06T13:35:49.737Z,96967.94
2023-03-06T13:38:58.031Z,96961.91
2023-03-06T13:41:48.753Z,96963.97
2023-03-06T13:44:47.924Z,96966.56
2023-03-06T13:48:02.478Z,96955.06
2023-03-06T13:50:39.791Z,96964.09
2023-03-06T13:53:34.988Z,96957.38
2023-03-06T13:56:16.408Z,96956.44
2023-03-06T13:59:04.766Z,96960.91
2023-03-06T14:01:46.577Z,96959.25
2023-03-06T14:04:34.426Z,96955.19
2023-03-06T14:07:21.303Z,96952.22
2023-03-06T14:10:09.565Z,96956.19
2023-03-06T14:12:39.733Z,96950.78
2023-03-06T14:15:18.429Z,96952.34
2023-03-06T14:17:57.273Z,96950.53
2023-03-06T14:20:33.497Z,96944.09
2023-03-06T14:23:31.069Z,96934.63
2023-03-06T14:26:08.735Z,96939.41
2023-03-06T14:28:37.249Z,96946.88
2023-03-06T14:31:07.188Z,96942.22
2023-03-06T14:33:42.979Z,96937.72
2023-03-06T14:36:15.485Z,96939.41
2023-03-06T14:38:49.340Z,96935.63
2023-03-06T14:41:27.195Z,96938.13
2023-03-06T14:44:09.566Z,96932.78
2023-03-06T14:46:37.608Z,96937.63
2023-03-06T14:49:08.909Z,96941.03
2023-03-06T14:51:44.006Z,96940.41
2023-03-06T14:54:19.518Z,96937.44
2023-03-06T14:56:53.125Z,96928.97
2023-03-06T14:59:26.812Z,96930.84
2023-03-06T15:01:59.539Z,96930.84
2023-03-06T15:04:31.489Z,96930.81
2023-03-06T15:07:00.705Z,96931.91
2023-03-06T15:09:31.814Z,96926.63
2023-03-06T15:12:02.684Z,96935.13
2023-03-06T15:14:36.550Z,96929.22
2023-03-06T15:17:26.698Z,96932.00
2023-03-06T15:19:55.936Z,96926.78
2023-03-06T15:22:28.903Z,96928.06
2023-03-06T15:25:19.052Z,96923.44
2023-03-06T15:27:52.307Z,96926.41
2023-03-06T15:30:26.882Z,96922.38
2023-03-06T15:33:10.976Z,96922.56
2023-03-06T15:35:39.786Z,96919.91
2023-03-06T15:38:25.407Z,96916.28
2023-03-06T15:40:58.202Z,96918.38
2023-03-06T15:43:29.803Z,96919.94
2023-03-06T15:46:01.972Z,96916.28
2023-03-06T15:48:29.961Z,96922.53
2023-03-06T15:51:00.330Z,96927.13
2023-03-06T15:53:28.863Z,96917.69
2023-03-06T15:55:59.735Z,96927.69
2023-03-06T15:58:32.229Z,96918.06
2023-03-06T16:01:00.357Z,96917.25
2023-03-06T16:03:28.657Z,96923.50
2023-03-06T16:05:58.629Z,96926.09
2023-03-06T16:08:30.331Z,96926.91
2023-03-06T16:10:59.354Z,96934.34
2023-03-06T16:13:30.047Z,96935.56
2023-03-06T16:15:58.006Z,96941.53
2023-03-06T16:18:26.206Z,96940.59
2023-03-06T16:20:54.124Z,96946.41
2023-03-06T16:23:22.226Z,96948.19
2023-03-06T16:25:50.513Z,96946.28
2023-03-06T16:28:18.802Z,96952.56
2023-03-06T16:30:48.168Z,96951.75
2023-03-06T16:33:16.151Z,96962.47
2023-03-06T16:35:46.607Z,96956.00
2023-03-06T16:38:15.688Z,96956.53
2023-03-06T16:40:44.429Z,96965.00
2023-03-06T16:43:13.555Z,96965.38
2023-03-06T16:45:43.136Z,96969.56
2023-03-06T16:48:16.066Z,96970.56
2023-03-06T16:50:44.283Z,96974.63
2023-03-06T16:53:12.496Z,96978.47
2023-03-06T16:55:40.438Z,96976.84
2023-03-06T16:58:09.557Z,96980.22
2023-03-06T17:00:37.486Z,96975.84
2023-03-06T17:03:06.108Z,96979.53
2023-03-06T17:05:37.089Z,96977.94
2023-03-06T17:08:05.730Z,96980.59
2023-03-06T17:10:33.932Z,96980.59
2023-03-06T17:13:02.184Z,96981.88
2023-03-06T17:15:30.293Z,96982.34
2023-03-06T17:17:58.843Z,96986.16
2023-03-06T17:20:28.184Z,96984.19
2023-03-06T17:22:57.528Z,96988.47
2023-03-06T17:25:25.848Z,96993.81
2023-03-06T17:27:54.715Z,97001.09
2023-03-06T17:30:23.494Z,96990.66
2023-03-06T17:32:51.446Z,97000.16
2023-03-06T17:35:19.615Z,96998.66
2023-03-06T17:37:47.739Z,97000.28
2023-03-06T17:40:17.385Z,97002.13
2023-03-06T17:42:46.864Z,97000.75
2023-03-06T17:45:14.915Z,97004.09
2023-03-06T17:47:42.796Z,97005.50
2023-03-06T17:50:12.360Z,97005.50
2023-03-06T17:52:40.319Z,97014.06
2023-03-06T17:55:09.200Z,97014.41
2023-03-06T17:57:38.512Z,97016.84
2023-03-06T18:00:07.791Z,97023.78
2023-03-06T18:02:36.243Z,97017.53
2023-03-06T18:05:05.230Z,97018.00
2023-03-06T18:07:33.213Z,97022.53
2023-03-06T18:10:01.191Z,97016.38
2023-03-06T18:12:29.448Z,97016.63
2023-03-06T18:14:58.956Z,97019.41
2023-03-06T18:17:26.984Z,97018.00
2023-03-06T18:19:59.049Z,97019.03
2023-03-06T18:22:27.148Z,97017.78
2023-03-06T18:24:55.307Z,97018.34
2023-03-06T18:27:23.549Z,97021.25
2023-03-06T18:29:52.220Z,97021.59
2023-03-06T18:32:21.681Z,97014.53
2023-03-06T18:34:51.238Z,97022.75
2023-03-06T18:37:19.457Z,97018.13
2023-03-06T18:39:47.696Z,97015.91
2023-03-06T18:42:15.750Z,97011.75
2023-03-06T18:44:44.131Z,97022.28
2023-03-06T18:47:12.001Z,97019.88
2023-03-06T18:49:45.497Z,97015.00
2023-03-06T18:52:13.854Z,97025.06
2023-03-06T18:54:43.287Z,97023.00
2023-03-06T18:57:12.291Z,97012.56
2023-03-06T18:59:43.043Z,97013.16
2023-03-06T19:02:12.459Z,97019.28
2023-03-06T19:04:42.081Z,97024.25
2023-03-06T19:07:10.406Z,97014.06
2023-03-06T19:09:38.794Z,97013.63
2023-03-06T19:12:07.821Z,97016.16
2023-03-06T19:14:36.427Z,97011.66
2023-03-06T19:17:04.610Z,97014.81
2023-03-06T19:19:32.661Z,97017.47
2023-03-06T19:22:02.094Z,97009.72
2023-03-06T19:24:30.145Z,97009.47
2023-03-06T19:26:58.048Z,97004.38
2023-03-06T19:29:26.262Z,97012.38
2023-03-06T19:31:57.403Z,97013.41
2023-03-06T19:34:25.534Z,97015.50
2023-03-06T19:36:53.535Z,97014.44
2023-03-06T19:39:22.791Z,97012.13
2023-03-06T19:41:50.939Z,97009.38
2023-03-06T19:44:20.423Z,97005.91
2023-03-06T19:46:49.834Z,97012.03
2023-03-06T19:49:18.281Z,97012.50
2023-03-06T19:51:47.133Z,97001.03
2023-03-06T19:54:15.745Z,97006.13
2023-03-06T19:56:45.385Z,97007.97
2023-03-06T19:59:13.308Z,97011.69
2023-03-06T20:01:42.834Z,97009.81
2023-03-06T20:04:10.873Z,97011.91
2023-03-06T20:06:39.376Z,97011.91
2023-03-06T20:09:10.622Z,97010.50
2023-03-06T20:11:40.568Z,97010.97
2023-03-06T20:14:11.912Z,97013.41
2023-03-06T20:16:40.230Z,97014.56
2023-03-06T20:19:09.081Z,97014.34
2023-03-06T20:21:38.260Z,97013.88
2023-03-06T20:24:07.959Z,97006.59
2023-03-06T20:26:38.043Z,97001.97
2023-03-06T20:29:06.389Z,97002.19
2023-03-06T20:31:35.808Z,96998.94
2023-03-06T20:34:05.062Z,97000.91
2023-03-06T20:36:35.972Z,96999.41
2023-03-06T20:39:06.370Z,96995.13
2023-03-06T20:41:37.037Z,96995.59
2023-03-06T20:44:07.011Z,96991.06
2023-03-06T20:46:37.408Z,96998.00
2023-03-06T20:49:05.652Z,96996.41
2023-03-06T20:51:36.202Z,96995.00
2023-03-06T20:54:04.730Z,96990.50
2023-03-06T20:56:44.444Z,96992.81
2023-03-06T20:59:16.724Z,96989.09
2023-03-06T21:01:50.464Z,96991.53
2023-03-06T21:04:30.261Z,96990.16
2023-03-06T21:07:01.102Z,96990.59
2023-03-06T21:13:05.240Z,96989.91
2023-03-06T21:15:39.850Z,96973.97
2023-03-06T21:18:14.217Z,96981.81
2023-03-06T21:20:53.104Z,96977.88
2023-03-06T21:26:22.023Z,96974.66
2023-03-06T21:28:57.001Z,96959.38
2023-03-06T21:31:38.333Z,96964.00
2023-03-06T21:34:11.623Z,96962.16
2023-03-06T21:36:41.018Z,96960.53
2023-03-06T21:39:09.414Z,96951.75
2023-03-06T21:41:41.936Z,96951.19
2023-03-06T21:44:10.205Z,96955.44
2023-03-06T21:46:42.186Z,96954.66
2023-03-06T21:49:14.052Z,96957.31
2023-03-06T21:51:42.139Z,96943.78
2023-03-06T21:54:10.245Z,96944.25
2023-03-06T21:56:38.114Z,96945.84
2023-03-06T21:59:06.321Z,96949.09
2023-03-06T22:01:34.588Z,96947.94
2023-03-06T22:04:02.896Z,96937.88
2023-03-06T22:06:33.293Z,96950.81
2023-03-06T22:09:02.428Z,96942.63
2023-03-06T22:11:31.390Z,96939.38
2023-03-06T22:13:59.824Z,96935.69
2023-03-06T22:16:28.319Z,96927.34
2023-03-06T22:18:56.489Z,96931.19
2023-03-06T22:21:25.164Z,96931.97
2023-03-06T22:23:57.547Z,96922.03
2023-03-06T22:26:26.749Z,96920.53
2023-03-06T22:28:54.946Z,96925.03
2023-03-06T22:31:24.980Z,96928.16
2023-03-06T22:33:53.750Z,96927.34
2023-03-06T22:36:23.000Z,96925.50
2023-03-06T22:38:54.448Z,96927.94
2023-03-06T22:41:25.752Z,96927.25
2023-03-06T22:43:56.327Z,96924.47
2023-03-06T22:46:25.521Z,96926.31
2023-03-06T22:48:54.272Z,96919.97
2023-03-06T22:51:22.657Z,96917.53
2023-03-06T22:53:51.800Z,96919.38
2023-03-06T22:56:22.464Z,96923.88
2023-03-06T22:58:52.423Z,96916.16
2023-03-06T23:01:22.755Z,96917.53
2023-03-06T23:03:52.776Z,96918.56
2023-03-06T23:06:24.401Z,96924.94
2023-03-06T23:08:54.082Z,96917.75
2023-03-06T23:11:23.722Z,96915.09
2023-03-06T23:13:54.781Z,96910.03
2023-03-06T23:16:23.142Z,96905.28
2023-03-06T23:18:52.438Z,96905.84
2023-03-06T23:21:22.842Z,96908.75
2023-03-06T23:23:52.974Z,96911.19
2023-03-06T23:26:22.637Z,96905.03
2023-03-06T23:28:51.186Z,96897.06
2023-03-06T23:31:23.860Z,96903.19
2023-03-06T23:33:52.453Z,96891.97
2023-03-06T23:36:20.556Z,96892.78
2023-03-06T23:38:48.668Z,96889.09
2023-03-06T23:41:18.188Z,96889.56
2023-03-06T23:43:46.414Z,96882.38
2023-03-06T23:46:15.423Z,96890.13
2023-03-06T23:48:46.388Z,96880.88
2023-03-06T23:51:16.651Z,96884.25
2023-03-06T23:53:45.744Z,96886.44
2023-03-06T23:56:15.396Z,96887.13
2023-03-06T23:58:43.882Z,96888.41
